F/V Renaissance II — FMEW — position and weather

sailwx.info

Track history (hours):
 
Tides and Currents Weather Stations Pressure Air Temp Water Temp Dewpoint Dewpoint Depression Visibility Wind Speed Wind Dir Waves Ship Positions

F/V Renaissance II

Last reported at 2016-Aug-31 21:32 UTC. Time now 2016-Aug-31 21:52 UTC.
Position N 46°09' W 001°39'.

Length 18 m.

Type: Fishing. MMSI: 228216600.

Date/timePositionNaut miles runAvg speedWind from/ knotsBaromVisibWave heightAir tempDewpointWater temp
2016-Aug-31 21:32N 46°09' W 001°39'3 3.6
2016-Aug-31 20:33N 46°05' W 001°38'2 2.4
2016-Aug-31 19:34N 46°04' W 001°35'2 2.3
2016-Aug-31 18:33N 46°03' W 001°32'2 1.6
2016-Aug-31 17:33N 46°02' W 001°31'0 0.2
2016-Aug-31 16:33N 46°02' W 001°32'7 6.8
2016-Aug-31 15:33N 45°56' W 001°36'0 0.2
2016-Aug-31 14:33N 45°56' W 001°36'1 1.4
2016-Aug-31 13:33N 45°57' W 001°37'1 0.8
2016-Aug-31 12:26N 45°57' W 001°36'1 0.5
2016-Aug-31 09:31N 45°58' W 001°37'3 2.5
2016-Aug-31 08:31N 46°00' W 001°37'2 1.8
2016-Aug-31 07:32N 46°02' W 001°38'1 0.6
2016-Aug-31 06:25N 46°02' W 001°39'1 0.3
2016-Aug-31 04:33N 46°03' W 001°39'7 7.1
2016-Aug-31 03:33N 46°10' W 001°42'8 7.7
2016-Aug-31 02:33N 46°17' W 001°44'8 7.7
2016-Aug-31 01:33N 46°25' W 001°46'5 5.1
2016-Aug-31 00:33N 46°30' W 001°47'3 2.9
2016-Aug-30 23:33N 46°28' W 001°51'7 7.0
2016-Aug-30 22:33N 46°31' W 002°00'7 6.7
2016-Aug-30 21:33N 46°33' W 002°09'7 6.8
2016-Aug-30 20:33N 46°36' W 002°19'7 6.8
2016-Aug-30 19:33N 46°38' W 002°28'8 6.7
2016-Aug-30 18:25N 46°41' W 002°38'6 7.3
2016-Aug-30 17:33N 46°43' W 002°47'5 4.7
2016-Aug-30 16:33N 46°45' W 002°53'1 1.4
2016-Aug-30 15:33N 46°44' W 002°51'1 1.1
2016-Aug-30 14:26N 46°46' W 002°51'3 2.6
2016-Aug-30 13:12N 46°43' W 002°48'1 0.5
2016-Aug-30 11:33N 46°44' W 002°47'2 1.6
2016-Aug-30 10:33N 46°44' W 002°45'1 0.5
2016-Aug-30 09:32N 46°43' W 002°46'1 0.6
2016-Aug-30 08:33N 46°44' W 002°45'2 1.5
2016-Aug-30 07:30N 46°45' W 002°43'2 1.6
2016-Aug-30 06:33N 46°43' W 002°44'0 0.3
2016-Aug-30 05:32N 46°43' W 002°44'3 3.5
2016-Aug-30 04:32N 46°43' W 002°39'17 7.2
2016-Aug-30 02:13N 46°36' W 002°16'5 7.2
2016-Aug-30 01:33N 46°35' W 002°10'7 7.3
2016-Aug-30 00:33N 46°31' W 002°00'7 7.2
2016-Aug-29 23:33N 46°28' W 001°51'3 2.9
2016-Aug-29 22:33N 46°30' W 001°47'5 4.8
2016-Aug-29 21:33N 46°25' W 001°47'9 9.4
2016-Aug-29 20:33N 46°16' W 001°48'10 9.1
2016-Aug-29 19:28N 46°06' W 001°49'  
2016-Aug-27 15:11N 46°15' W 001°52'0 0.7
2016-Aug-27 14:33N 46°14' W 001°51'6 2.8
2016-Aug-27 12:33N 46°11' W 001°45'9 2.3
2016-Aug-27 08:32N 46°04' W 001°36'1 1.2
2016-Aug-27 07:33N 46°05' W 001°37'1 1.0
2016-Aug-27 06:33N 46°04' W 001°36'7 3.4
2016-Aug-27 04:33N 46°11' W 001°41'9 9.2
2016-Aug-27 03:33N 46°20' W 001°44'9 9.1
2016-Aug-27 02:33N 46°28' W 001°47'1 1.5
2016-Aug-27 01:33N 46°30' W 001°47'0 0.0
2016-Aug-27 00:33N 46°30' W 001°47'0 0.0
2016-Aug-26 23:33N 46°30' W 001°47'0 0.0
2016-Aug-26 22:33N 46°30' W 001°47'0 0.0
2016-Aug-26 21:33N 46°30' W 001°47'0 0.0
2016-Aug-26 20:33N 46°30' W 001°47'0 0.0
2016-Aug-26 19:33N 46°30' W 001°47'3 3.4
2016-Aug-26 18:33N 46°27' W 001°46'10 9.9
2016-Aug-26 17:33N 46°17' W 001°42'1010.0
2016-Aug-26 16:33N 46°07' W 001°38'4 3.6
2016-Aug-26 15:33N 46°04' W 001°36'0 0.0
2016-Aug-26 14:03N 46°04' W 001°36'0 0.1
2016-Aug-26 11:19N 46°05' W 001°36'1 0.4
2016-Aug-26 08:29N 46°05' W 001°35'1 0.1
2016-Aug-26 04:33N 46°05' W 001°34'0 0.3
2016-Aug-26 03:33N 46°05' W 001°34'4 4.1
2016-Aug-26 02:33N 46°08' W 001°38'4 4.3
2016-Aug-26 01:33N 46°12' W 001°42'5 4.8
2016-Aug-26 00:33N 46°16' W 001°43'5 4.8
2016-Aug-25 23:33N 46°21' W 001°44'4 4.5
2016-Aug-25 22:33N 46°25' W 001°46'5 4.7
2016-Aug-25 21:33N 46°30' W 001°48'0 0.2
2016-Aug-25 20:33N 46°30' W 001°48'9 9.3
2016-Aug-25 19:33N 46°21' W 001°43'9 9.4
2016-Aug-25 18:33N 46°12' W 001°37'7 6.4
2016-Aug-25 17:30N 46°06' W 001°34'0 0.4
2016-Aug-25 16:33N 46°06' W 001°34'1 0.5
2016-Aug-25 14:30N 46°05' W 001°36'3 1.3
2016-Aug-25 12:30N 46°03' W 001°38'1 1.1
2016-Aug-25 11:33N 46°02' W 001°38'0 0.4
2016-Aug-25 10:33N 46°03' W 001°38'1 0.7
2016-Aug-25 09:26N 46°03' W 001°37'1 1.6
2016-Aug-25 08:32N 46°04' W 001°39'3 2.7
2016-Aug-25 07:23N 46°03' W 001°34'1 0.6
2016-Aug-25 06:33N 46°03' W 001°35'2 1.1
2016-Aug-25 04:33N 46°05' W 001°37'4 3.7
2016-Aug-25 03:33N 46°08' W 001°39'4 4.2
2016-Aug-25 02:34N 46°12' W 001°41'4 4.0
2016-Aug-25 01:33N 46°16' W 001°43'4 4.3
2016-Aug-25 00:33N 46°20' W 001°45'4 4.5
2016-Aug-24 23:34N 46°24' W 001°46'4 4.3
2016-Aug-24 22:33N 46°29' W 001°47'1 1.2
2016-Aug-24 21:33N 46°30' W 001°48'9 8.8
2016-Aug-24 20:33N 46°21' W 001°45'9 9.0
2016-Aug-24 19:33N 46°13' W 001°41'9 8.8
2016-Aug-24 18:33N 46°05' W 001°34'1 1.5
2016-Aug-24 17:33N 46°04' W 001°36'0 0.4
2016-Aug-24 16:33N 46°04' W 001°36'1 0.8
2016-Aug-24 15:33N 46°05' W 001°35'1 0.8
2016-Aug-24 14:33N 46°04' W 001°36'1 0.7
2016-Aug-24 13:27N 46°05' W 001°35'1 1.3
2016-Aug-24 12:32N 46°04' W 001°36'0 0.2
2016-Aug-24 11:26N 46°04' W 001°37'0 0.3
2016-Aug-24 10:31N 46°04' W 001°37'1 0.8
2016-Aug-24 09:31N 46°05' W 001°36'1 1.1
2016-Aug-24 08:25N 46°05' W 001°38'3 3.2
2016-Aug-24 07:33N 46°03' W 001°36'0 0.5
2016-Aug-24 06:33N 46°03' W 001°36'1 0.3
2016-Aug-24 04:33N 46°04' W 001°37'4 3.8
2016-Aug-24 03:33N 46°07' W 001°39'4 4.1
2016-Aug-24 02:34N 46°11' W 001°41'4 3.8
2016-Aug-24 01:33N 46°15' W 001°42'4 3.8
2016-Aug-24 00:33N 46°18' W 001°44'4 4.2
2016-Aug-23 23:33N 46°23' W 001°45'4 4.1
2016-Aug-23 22:33N 46°27' W 001°46'3 3.4
2016-Aug-23 21:33N 46°30' W 001°47'3 2.6
2016-Aug-23 20:33N 46°27' W 001°46'10 9.6
2016-Aug-23 19:33N 46°18' W 001°42'6 6.5
2016-Aug-23 18:33N 46°12' W 001°40'9 8.8
2016-Aug-23 17:33N 46°03' W 001°36'2 1.6
2016-Aug-23 16:33N 46°04' W 001°38'1 0.9
2016-Aug-23 15:29N 46°04' W 001°36'0 0.1
2016-Aug-23 08:25N 46°04' W 001°36'1 0.2
2016-Aug-23 05:30N 46°03' W 001°36'7 3.7
2016-Aug-23 03:33N 46°10' W 001°39'5 5.1
2016-Aug-23 02:33N 46°15' W 001°41'3 3.1
2016-Aug-23 01:33N 46°18' W 001°42'4 3.6
2016-Aug-23 00:33N 46°21' W 001°44'3 3.3
2016-Aug-22 23:33N 46°25' W 001°46'3 3.4
2016-Aug-22 22:33N 46°28' W 001°47'2 2.1
2016-Aug-22 21:33N 46°30' W 001°47'6 6.2
2016-Aug-22 20:33N 46°24' W 001°46'9 9.4
2016-Aug-22 19:33N 46°15' W 001°42'13 1.7
2016-Aug-22 12:09N 46°02' W 001°46'4 2.3
2016-Aug-22 10:33N 46°05' W 001°49'4 3.2
2016-Aug-22 09:23N 46°08' W 001°51'1 0.7
2016-Aug-22 08:33N 46°08' W 001°50'3 2.6
2016-Aug-22 07:33N 46°11' W 001°48'8 8.1
2016-Aug-22 06:33N 46°18' W 001°44'0 0.2
2016-Aug-22 05:33N 46°18' W 001°44'7 7.3
2016-Aug-22 04:33N 46°25' W 001°46'5 4.7
2016-Aug-22 03:33N 46°30' W 001°47'0 0.0
2016-Aug-22 02:33N 46°30' W 001°47'0 0.0
2016-Aug-22 01:33N 46°30' W 001°47'0 0.0
2016-Aug-22 00:33N 46°30' W 001°47'0 0.0
2016-Aug-21 23:34N 46°30' W 001°47'0 0.0
2016-Aug-21 22:33N 46°30' W 001°47'0 0.0
2016-Aug-21 21:33N 46°30' W 001°47'  
Track history (hours):
 
Tides and Currents Weather Stations Pressure Air Temp Water Temp Dewpoint Dewpoint Depression Visibility Wind Speed Wind Dir Waves Ship Positions

F/V Renaissance II

Last reported at 2016-Aug-31 21:32 UTC. Time now 2016-Aug-31 21:52 UTC.
Position N 46°09' W 001°39'.

Length 18 m.

Type: Fishing. MMSI: 228216600.

Date/timePositionNaut miles runAvg speedWind from/ knotsBaromVisibWave heightAir tempDewpointWater temp
2016-Aug-31 21:32N 46°09' W 001°39'3 3.6
2016-Aug-31 20:33N 46°05' W 001°38'2 2.4
2016-Aug-31 19:34N 46°04' W 001°35'2 2.3
2016-Aug-31 18:33N 46°03' W 001°32'2 1.6
2016-Aug-31 17:33N 46°02' W 001°31'0 0.2
2016-Aug-31 16:33N 46°02' W 001°32'7 6.8
2016-Aug-31 15:33N 45°56' W 001°36'0 0.2
2016-Aug-31 14:33N 45°56' W 001°36'1 1.4
2016-Aug-31 13:33N 45°57' W 001°37'1 0.8
2016-Aug-31 12:26N 45°57' W 001°36'1 0.5
2016-Aug-31 09:31N 45°58' W 001°37'3 2.5
2016-Aug-31 08:31N 46°00' W 001°37'2 1.8
2016-Aug-31 07:32N 46°02' W 001°38'1 0.6
2016-Aug-31 06:25N 46°02' W 001°39'1 0.3
2016-Aug-31 04:33N 46°03' W 001°39'7 7.1
2016-Aug-31 03:33N 46°10' W 001°42'8 7.7
2016-Aug-31 02:33N 46°17' W 001°44'8 7.7
2016-Aug-31 01:33N 46°25' W 001°46'5 5.1
2016-Aug-31 00:33N 46°30' W 001°47'3 2.9
2016-Aug-30 23:33N 46°28' W 001°51'7 7.0
2016-Aug-30 22:33N 46°31' W 002°00'7 6.7
2016-Aug-30 21:33N 46°33' W 002°09'7 6.8
2016-Aug-30 20:33N 46°36' W 002°19'7 6.8
2016-Aug-30 19:33N 46°38' W 002°28'8 6.7
2016-Aug-30 18:25N 46°41' W 002°38'6 7.3
2016-Aug-30 17:33N 46°43' W 002°47'5 4.7
2016-Aug-30 16:33N 46°45' W 002°53'1 1.4
2016-Aug-30 15:33N 46°44' W 002°51'1 1.1
2016-Aug-30 14:26N 46°46' W 002°51'3 2.6
2016-Aug-30 13:12N 46°43' W 002°48'1 0.5
2016-Aug-30 11:33N 46°44' W 002°47'2 1.6
2016-Aug-30 10:33N 46°44' W 002°45'1 0.5
2016-Aug-30 09:32N 46°43' W 002°46'1 0.6
2016-Aug-30 08:33N 46°44' W 002°45'2 1.5
2016-Aug-30 07:30N 46°45' W 002°43'2 1.6
2016-Aug-30 06:33N 46°43' W 002°44'0 0.3
2016-Aug-30 05:32N 46°43' W 002°44'3 3.5
2016-Aug-30 04:32N 46°43' W 002°39'17 7.2
2016-Aug-30 02:13N 46°36' W 002°16'5 7.2
2016-Aug-30 01:33N 46°35' W 002°10'7 7.3
2016-Aug-30 00:33N 46°31' W 002°00'7 7.2
2016-Aug-29 23:33N 46°28' W 001°51'3 2.9
2016-Aug-29 22:33N 46°30' W 001°47'5 4.8
2016-Aug-29 21:33N 46°25' W 001°47'9 9.4
2016-Aug-29 20:33N 46°16' W 001°48'10 9.1
2016-Aug-29 19:28N 46°06' W 001°49'  
2016-Aug-27 15:11N 46°15' W 001°52'0 0.7
2016-Aug-27 14:33N 46°14' W 001°51'6 2.8
2016-Aug-27 12:33N 46°11' W 001°45'9 2.3
2016-Aug-27 08:32N 46°04' W 001°36'1 1.2
2016-Aug-27 07:33N 46°05' W 001°37'1 1.0
2016-Aug-27 06:33N 46°04' W 001°36'7 3.4
2016-Aug-27 04:33N 46°11' W 001°41'9 9.2
2016-Aug-27 03:33N 46°20' W 001°44'9 9.1
2016-Aug-27 02:33N 46°28' W 001°47'1 1.5
2016-Aug-27 01:33N 46°30' W 001°47'0 0.0
2016-Aug-27 00:33N 46°30' W 001°47'0 0.0
2016-Aug-26 23:33N 46°30' W 001°47'0 0.0
2016-Aug-26 22:33N 46°30' W 001°47'0 0.0
2016-Aug-26 21:33N 46°30' W 001°47'0 0.0
2016-Aug-26 20:33N 46°30' W 001°47'0 0.0
2016-Aug-26 19:33N 46°30' W 001°47'3 3.4
2016-Aug-26 18:33N 46°27' W 001°46'10 9.9
2016-Aug-26 17:33N 46°17' W 001°42'1010.0
2016-Aug-26 16:33N 46°07' W 001°38'4 3.6
2016-Aug-26 15:33N 46°04' W 001°36'0 0.0
2016-Aug-26 14:03N 46°04' W 001°36'0 0.1
2016-Aug-26 11:19N 46°05' W 001°36'1 0.4
2016-Aug-26 08:29N 46°05' W 001°35'1 0.1
2016-Aug-26 04:33N 46°05' W 001°34'0 0.3
2016-Aug-26 03:33N 46°05' W 001°34'4 4.1
2016-Aug-26 02:33N 46°08' W 001°38'4 4.3
2016-Aug-26 01:33N 46°12' W 001°42'5 4.8
2016-Aug-26 00:33N 46°16' W 001°43'5 4.8
2016-Aug-25 23:33N 46°21' W 001°44'4 4.5
2016-Aug-25 22:33N 46°25' W 001°46'5 4.7
2016-Aug-25 21:33N 46°30' W 001°48'0 0.2
2016-Aug-25 20:33N 46°30' W 001°48'9 9.3
2016-Aug-25 19:33N 46°21' W 001°43'9 9.4
2016-Aug-25 18:33N 46°12' W 001°37'7 6.4
2016-Aug-25 17:30N 46°06' W 001°34'0 0.4
2016-Aug-25 16:33N 46°06' W 001°34'1 0.5
2016-Aug-25 14:30N 46°05' W 001°36'3 1.3
2016-Aug-25 12:30N 46°03' W 001°38'1 1.1
2016-Aug-25 11:33N 46°02' W 001°38'0 0.4
2016-Aug-25 10:33N 46°03' W 001°38'1 0.7
2016-Aug-25 09:26N 46°03' W 001°37'1 1.6
2016-Aug-25 08:32N 46°04' W 001°39'3 2.7
2016-Aug-25 07:23N 46°03' W 001°34'1 0.6
2016-Aug-25 06:33N 46°03' W 001°35'2 1.1
2016-Aug-25 04:33N 46°05' W 001°37'4 3.7
2016-Aug-25 03:33N 46°08' W 001°39'4 4.2
2016-Aug-25 02:34N 46°12' W 001°41'4 4.0
2016-Aug-25 01:33N 46°16' W 001°43'4 4.3
2016-Aug-25 00:33N 46°20' W 001°45'4 4.5
2016-Aug-24 23:34N 46°24' W 001°46'4 4.3
2016-Aug-24 22:33N 46°29' W 001°47'1 1.2
2016-Aug-24 21:33N 46°30' W 001°48'9 8.8
2016-Aug-24 20:33N 46°21' W 001°45'9 9.0
2016-Aug-24 19:33N 46°13' W 001°41'9 8.8
2016-Aug-24 18:33N 46°05' W 001°34'1 1.5
2016-Aug-24 17:33N 46°04' W 001°36'0 0.4
2016-Aug-24 16:33N 46°04' W 001°36'1 0.8
2016-Aug-24 15:33N 46°05' W 001°35'1 0.8
2016-Aug-24 14:33N 46°04' W 001°36'1 0.7
2016-Aug-24 13:27N 46°05' W 001°35'1 1.3
2016-Aug-24 12:32N 46°04' W 001°36'0 0.2
2016-Aug-24 11:26N 46°04' W 001°37'0 0.3
2016-Aug-24 10:31N 46°04' W 001°37'1 0.8
2016-Aug-24 09:31N 46°05' W 001°36'1 1.1
2016-Aug-24 08:25N 46°05' W 001°38'3 3.2
2016-Aug-24 07:33N 46°03' W 001°36'0 0.5
2016-Aug-24 06:33N 46°03' W 001°36'1 0.3
2016-Aug-24 04:33N 46°04' W 001°37'4 3.8
2016-Aug-24 03:33N 46°07' W 001°39'4 4.1
2016-Aug-24 02:34N 46°11' W 001°41'4 3.8
2016-Aug-24 01:33N 46°15' W 001°42'4 3.8
2016-Aug-24 00:33N 46°18' W 001°44'4 4.2
2016-Aug-23 23:33N 46°23' W 001°45'4 4.1
2016-Aug-23 22:33N 46°27' W 001°46'3 3.4
2016-Aug-23 21:33N 46°30' W 001°47'3 2.6
2016-Aug-23 20:33N 46°27' W 001°46'10 9.6
2016-Aug-23 19:33N 46°18' W 001°42'6 6.5
2016-Aug-23 18:33N 46°12' W 001°40'9 8.8
2016-Aug-23 17:33N 46°03' W 001°36'2 1.6
2016-Aug-23 16:33N 46°04' W 001°38'1 0.9
2016-Aug-23 15:29N 46°04' W 001°36'0 0.1
2016-Aug-23 08:25N 46°04' W 001°36'1 0.2
2016-Aug-23 05:30N 46°03' W 001°36'7 3.7
2016-Aug-23 03:33N 46°10' W 001°39'5 5.1
2016-Aug-23 02:33N 46°15' W 001°41'3 3.1
2016-Aug-23 01:33N 46°18' W 001°42'4 3.6
2016-Aug-23 00:33N 46°21' W 001°44'3 3.3
2016-Aug-22 23:33N 46°25' W 001°46'3 3.4
2016-Aug-22 22:33N 46°28' W 001°47'2 2.1
2016-Aug-22 21:33N 46°30' W 001°47'6 6.2
2016-Aug-22 20:33N 46°24' W 001°46'9 9.4
2016-Aug-22 19:33N 46°15' W 001°42'13 1.7
2016-Aug-22 12:09N 46°02' W 001°46'4 2.3
2016-Aug-22 10:33N 46°05' W 001°49'4 3.2
2016-Aug-22 09:23N 46°08' W 001°51'1 0.7
2016-Aug-22 08:33N 46°08' W 001°50'3 2.6
2016-Aug-22 07:33N 46°11' W 001°48'8 8.1
2016-Aug-22 06:33N 46°18' W 001°44'0 0.2
2016-Aug-22 05:33N 46°18' W 001°44'7 7.3
2016-Aug-22 04:33N 46°25' W 001°46'5 4.7
2016-Aug-22 03:33N 46°30' W 001°47'0 0.0
2016-Aug-22 02:33N 46°30' W 001°47'0 0.0
2016-Aug-22 01:33N 46°30' W 001°47'0 0.0
2016-Aug-22 00:33N 46°30' W 001°47'0 0.0
2016-Aug-21 23:34N 46°30' W 001°47'0 0.0
2016-Aug-21 22:33N 46°30' W 001°47'0 0.0
2016-Aug-21 21:33N 46°30' W 001°47'  

Dump ship's entire track history